Babcock, Illinois
Current Conditions -  °F | °C
As of 9:52 AM on Thursday 27 Nov 2014 (Local Time) from KMLI Reporting Station
Light Snow Light Snow  
Wind Chill:   Ceiling: 1600
Heat Index: 21°   Visibility: 4mi
Dew Point: 15°   Wind: 20mph
Humidity: 78%   Direction: 300°WNW
Pressure: 30.44"   Gusts: 23mph
Location:  41.5228°N, 90.3951°W
Report Text: KMLI 271552Z 30017G20KT 4SM -SN BKN016 BKN028 OVC036 M06/M09 A3044 RMK AO2 SLP316 P0000 T10611094 $
Loading
Personal Weather Stations






























Interactive Weather Map New forecast layout! Learn more

10-Day Weather Forecast

Advertisements
Track Severe Weather on mobile